sensor_id;sensor_type;location;lat;lon;timestamp;pressure;altitude;pressure_sealevel;temperature;humidity
216;BME280;64590;48.81286795;9.14184224;2023-04-23T00:01:54;97610.88;;;14.34;63.98
216;BME280;64590;48.81286795;9.14184224;2023-04-23T00:04:24;97611.72;;;14.31;64.10
216;BME280;64590;48.81286795;9.14184224;2023-04-23T00:06:51;97618.63;;;14.43;63.75
216;BME280;64590;48.81286795;9.14184224;2023-04-23T00:09:21;97618.72;;;14.39;63.97
216;BME280;64590;48.81286795;9.14184224;2023-04-23T00:11:48;97625.78;;;14.44;63.88
216;BME280;64590;48.81286795;9.14184224;2023-04-23T00:14:15;97619.66;;;14.33;63.79
216;BME280;64590;48.81286795;9.14184224;2023-04-23T00:16:42;97618.09;;;14.32;63.65
216;BME280;64590;48.81286795;9.14184224;2023-04-23T00:19:09;97622.44;;;14.33;63.96
216;BME280;64590;48.81286795;9.14184224;2023-04-23T00:21:35;97620.03;;;14.35;64.07
216;BME280;64590;48.81286795;9.14184224;2023-04-23T00:24:02;97625.25;;;14.33;64.48
216;BME280;64590;48.81286795;9.14184224;2023-04-23T00:26:30;97627.88;;;14.40;64.17
216;BME280;64590;48.81286795;9.14184224;2023-04-23T00:28:56;97617.31;;;14.31;65.11
216;BME280;64590;48.81286795;9.14184224;2023-04-23T00:31:23;97616.78;;;14.20;66.02
216;BME280;64590;48.81286795;9.14184224;2023-04-23T00:33:51;97632.56;;;14.10;66.44
216;BME280;64590;48.81286795;9.14184224;2023-04-23T00:36:18;97629.06;;;14.06;67.69
216;BME280;64590;48.81286795;9.14184224;2023-04-23T00:38:44;97627.84;;;14.07;67.54
216;BME280;64590;48.81286795;9.14184224;2023-04-23T00:41:11;97627.03;;;14.07;67.97
216;BME280;64590;48.81286795;9.14184224;2023-04-23T00:43:39;97625.28;;;13.97;68.69
216;BME280;64590;48.81286795;9.14184224;2023-04-23T00:46:06;97631.44;;;14.08;68.74
216;BME280;64590;48.81286795;9.14184224;2023-04-23T00:48:33;97646.38;;;13.98;68.86
216;BME280;64590;48.81286795;9.14184224;2023-04-23T00:51:03;97645.19;;;13.99;68.34
216;BME280;64590;48.81286795;9.14184224;2023-04-23T00:53:31;97642.75;;;13.81;68.95
216;BME280;64590;48.81286795;9.14184224;2023-04-23T00:55:58;97644.38;;;13.98;68.98
216;BME280;64590;48.81286795;9.14184224;2023-04-23T00:58:27;97647.75;;;13.90;69.33
216;BME280;64590;48.81286795;9.14184224;2023-04-23T01:00:56;97647.44;;;14.04;69.07
216;BME280;64590;48.81286795;9.14184224;2023-04-23T01:03:23;97651.56;;;13.99;69.04
216;BME280;64590;48.81286795;9.14184224;2023-04-23T01:05:51;97661.94;;;13.99;70.37
216;BME280;64590;48.81286795;9.14184224;2023-04-23T01:08:20;97657.00;;;13.86;69.02
216;BME280;64590;48.81286795;9.14184224;2023-04-23T01:10:48;97658.56;;;13.88;69.55
216;BME280;64590;48.81286795;9.14184224;2023-04-23T01:13:15;97655.78;;;13.88;69.84
216;BME280;64590;48.81286795;9.14184224;2023-04-23T01:15:42;97657.88;;;13.83;69.82
216;BME280;64590;48.81286795;9.14184224;2023-04-23T01:18:11;97661.25;;;13.75;69.70
216;BME280;64590;48.81286795;9.14184224;2023-04-23T01:20:37;97660.09;;;13.72;70.40
216;BME280;64590;48.81286795;9.14184224;2023-04-23T01:23:06;97665.06;;;13.81;69.66
216;BME280;64590;48.81286795;9.14184224;2023-04-23T01:25:33;97660.47;;;13.74;69.83
216;BME280;64590;48.81286795;9.14184224;2023-04-23T01:28:00;97668.03;;;13.74;70.41
216;BME280;64590;48.81286795;9.14184224;2023-04-23T01:30:27;97670.53;;;13.68;70.10
216;BME280;64590;48.81286795;9.14184224;2023-04-23T01:32:55;97668.97;;;13.47;70.77
216;BME280;64590;48.81286795;9.14184224;2023-04-23T01:35:23;97667.81;;;13.45;71.69
216;BME280;64590;48.81286795;9.14184224;2023-04-23T01:37:50;97667.25;;;13.53;71.48
216;BME280;64590;48.81286795;9.14184224;2023-04-23T01:40:19;97665.59;;;13.36;71.50
216;BME280;64590;48.81286795;9.14184224;2023-04-23T01:42:46;97670.34;;;13.16;72.69
216;BME280;64590;48.81286795;9.14184224;2023-04-23T01:45:13;97678.94;;;13.25;73.09
216;BME280;64590;48.81286795;9.14184224;2023-04-23T01:47:40;97678.50;;;13.26;73.18
216;BME280;64590;48.81286795;9.14184224;2023-04-23T01:50:08;97661.00;;;13.26;73.39
216;BME280;64590;48.81286795;9.14184224;2023-04-23T01:52:34;97670.50;;;13.28;72.88
216;BME280;64590;48.81286795;9.14184224;2023-04-23T01:55:01;97668.03;;;13.34;73.55
216;BME280;64590;48.81286795;9.14184224;2023-04-23T01:57:29;97669.31;;;13.29;73.35
216;BME280;64590;48.81286795;9.14184224;2023-04-23T02:00:01;97673.56;;;13.57;72.98
216;BME280;64590;48.81286795;9.14184224;2023-04-23T02:02:39;97682.84;;;13.51;72.66
216;BME280;64590;48.81286795;9.14184224;2023-04-23T02:05:09;97679.03;;;13.41;73.59
216;BME280;64590;48.81286795;9.14184224;2023-04-23T02:07:36;97674.34;;;13.38;74.02
216;BME280;64590;48.81286795;9.14184224;2023-04-23T02:10:04;97680.75;;;13.35;74.21
216;BME280;64590;48.81286795;9.14184224;2023-04-23T02:12:32;97685.75;;;13.44;74.09
216;BME280;64590;48.81286795;9.14184224;2023-04-23T02:14:59;97689.84;;;13.39;75.18
216;BME280;64590;48.81286795;9.14184224;2023-04-23T02:17:26;97697.34;;;13.42;75.35
216;BME280;64590;48.81286795;9.14184224;2023-04-23T02:19:54;97690.03;;;13.28;78.88
216;BME280;64590;48.81286795;9.14184224;2023-04-23T02:22:21;97707.28;;;13.43;77.11
216;BME280;64590;48.81286795;9.14184224;2023-04-23T02:24:49;97707.31;;;13.20;76.65
216;BME280;64590;48.81286795;9.14184224;2023-04-23T02:27:16;97714.81;;;13.23;80.57
216;BME280;64590;48.81286795;9.14184224;2023-04-23T02:29:45;97705.78;;;13.39;77.49
216;BME280;64590;48.81286795;9.14184224;2023-04-23T02:32:11;97711.47;;;13.32;78.75
216;BME280;64590;48.81286795;9.14184224;2023-04-23T02:34:39;97702.38;;;13.27;79.86
216;BME280;64590;48.81286795;9.14184224;2023-04-23T02:37:06;97698.81;;;13.27;80.87
216;BME280;64590;48.81286795;9.14184224;2023-04-23T02:39:32;97698.09;;;13.23;81.44
216;BME280;64590;48.81286795;9.14184224;2023-04-23T02:41:59;97703.78;;;13.16;82.24
216;BME280;64590;48.81286795;9.14184224;2023-04-23T02:44:26;97697.19;;;13.06;84.04
216;BME280;64590;48.81286795;9.14184224;2023-04-23T02:46:54;97691.84;;;13.15;83.21
216;BME280;64590;48.81286795;9.14184224;2023-04-23T02:49:21;97682.81;;;13.08;84.01
216;BME280;64590;48.81286795;9.14184224;2023-04-23T02:51:47;97687.72;;;13.00;85.06
216;BME280;64590;48.81286795;9.14184224;2023-04-23T02:54:14;97679.91;;;12.91;85.30
216;BME280;64590;48.81286795;9.14184224;2023-04-23T02:56:41;97679.50;;;12.93;86.36
216;BME280;64590;48.81286795;9.14184224;2023-04-23T02:59:07;97685.00;;;12.73;88.24
216;BME280;64590;48.81286795;9.14184224;2023-04-23T03:01:34;97694.75;;;12.85;87.82
216;BME280;64590;48.81286795;9.14184224;2023-04-23T03:04:03;97701.94;;;12.59;87.87
216;BME280;64590;48.81286795;9.14184224;2023-04-23T03:06:30;97698.09;;;12.49;88.96
216;BME280;64590;48.81286795;9.14184224;2023-04-23T03:08:58;97708.28;;;12.59;89.49
216;BME280;64590;48.81286795;9.14184224;2023-04-23T03:11:25;97702.78;;;12.56;89.92
216;BME280;64590;48.81286795;9.14184224;2023-04-23T03:13:52;97703.13;;;12.58;89.29
216;BME280;64590;48.81286795;9.14184224;2023-04-23T03:16:19;97706.94;;;12.71;89.01
216;BME280;64590;48.81286795;9.14184224;2023-04-23T03:18:46;97681.72;;;12.55;89.01
216;BME280;64590;48.81286795;9.14184224;2023-04-23T03:21:13;97700.31;;;12.61;88.98
216;BME280;64590;48.81286795;9.14184224;2023-04-23T03:23:41;97691.53;;;12.63;88.74
216;BME280;64590;48.81286795;9.14184224;2023-04-23T03:26:07;97689.13;;;12.65;88.81
216;BME280;64590;48.81286795;9.14184224;2023-04-23T03:28:34;97686.69;;;12.67;88.01
216;BME280;64590;48.81286795;9.14184224;2023-04-23T03:31:00;97687.75;;;12.50;89.01
216;BME280;64590;48.81286795;9.14184224;2023-04-23T03:33:27;97690.06;;;12.55;89.64
216;BME280;64590;48.81286795;9.14184224;2023-04-23T03:35:54;97685.28;;;12.55;88.17
216;BME280;64590;48.81286795;9.14184224;2023-04-23T03:38:27;97681.84;;;12.48;88.79
216;BME280;64590;48.81286795;9.14184224;2023-04-23T03:40:55;97690.19;;;12.48;89.08
216;BME280;64590;48.81286795;9.14184224;2023-04-23T03:43:23;97690.66;;;12.42;88.67
216;BME280;64590;48.81286795;9.14184224;2023-04-23T03:46:02;97678.25;;;12.47;88.66
216;BME280;64590;48.81286795;9.14184224;2023-04-23T03:48:31;97678.94;;;12.55;88.87
216;BME280;64590;48.81286795;9.14184224;2023-04-23T03:51:01;97679.03;;;12.48;89.78
216;BME280;64590;48.81286795;9.14184224;2023-04-23T03:53:43;97680.31;;;12.43;88.50
216;BME280;64590;48.81286795;9.14184224;2023-04-23T03:56:29;97677.22;;;12.37;88.21
216;BME280;64590;48.81286795;9.14184224;2023-04-23T03:59:11;97686.03;;;12.32;88.34
216;BME280;64590;48.81286795;9.14184224;2023-04-23T04:01:38;97687.75;;;12.50;88.05
216;BME280;64590;48.81286795;9.14184224;2023-04-23T04:04:04;97693.56;;;12.35;88.88
216;BME280;64590;48.81286795;9.14184224;2023-04-23T04:06:31;97699.81;;;12.43;89.16
216;BME280;64590;48.81286795;9.14184224;2023-04-23T04:08:59;97704.16;;;12.44;89.29
216;BME280;64590;48.81286795;9.14184224;2023-04-23T04:11:27;97702.19;;;12.41;89.52
216;BME280;64590;48.81286795;9.14184224;2023-04-23T04:13:53;97710.25;;;12.35;89.35
216;BME280;64590;48.81286795;9.14184224;2023-04-23T04:16:20;97698.88;;;12.26;88.92
216;BME280;64590;48.81286795;9.14184224;2023-04-23T04:18:47;97696.34;;;12.35;87.88
216;BME280;64590;48.81286795;9.14184224;2023-04-23T04:21:13;97694.53;;;12.22;88.31
216;BME280;64590;48.81286795;9.14184224;2023-04-23T04:23:42;97701.47;;;12.10;88.65
216;BME280;64590;48.81286795;9.14184224;2023-04-23T04:26:10;97694.69;;;12.11;88.75
216;BME280;64590;48.81286795;9.14184224;2023-04-23T04:28:37;97698.69;;;12.10;88.75
216;BME280;64590;48.81286795;9.14184224;2023-04-23T04:31:04;97711.41;;;12.07;88.89
216;BME280;64590;48.81286795;9.14184224;2023-04-23T04:33:31;97704.06;;;11.94;89.17
216;BME280;64590;48.81286795;9.14184224;2023-04-23T04:36:00;97715.91;;;11.98;89.16
216;BME280;64590;48.81286795;9.14184224;2023-04-23T04:38:26;97711.66;;;11.89;89.32
216;BME280;64590;48.81286795;9.14184224;2023-04-23T04:40:54;97691.22;;;11.69;89.43
216;BME280;64590;48.81286795;9.14184224;2023-04-23T04:43:24;97712.91;;;11.85;89.11
216;BME280;64590;48.81286795;9.14184224;2023-04-23T04:45:51;97706.28;;;11.72;89.95
216;BME280;64590;48.81286795;9.14184224;2023-04-23T04:48:18;97707.81;;;11.80;89.85
216;BME280;64590;48.81286795;9.14184224;2023-04-23T04:50:45;97701.13;;;11.74;89.34
216;BME280;64590;48.81286795;9.14184224;2023-04-23T04:53:11;97705.47;;;11.75;88.75
216;BME280;64590;48.81286795;9.14184224;2023-04-23T04:55:38;97712.56;;;11.79;89.56
216;BME280;64590;48.81286795;9.14184224;2023-04-23T04:58:05;97713.25;;;11.91;89.00
216;BME280;64590;48.81286795;9.14184224;2023-04-23T05:00:33;97715.56;;;11.96;89.00
216;BME280;64590;48.81286795;9.14184224;2023-04-23T05:03:00;97706.88;;;12.21;88.23
216;BME280;64590;48.81286795;9.14184224;2023-04-23T05:05:27;97693.03;;;12.17;88.07
216;BME280;64590;48.81286795;9.14184224;2023-04-23T05:07:54;97700.72;;;12.06;88.47
216;BME280;64590;48.81286795;9.14184224;2023-04-23T05:10:23;97691.59;;;12.05;88.67
216;BME280;64590;48.81286795;9.14184224;2023-04-23T05:12:51;97697.41;;;12.14;88.82
216;BME280;64590;48.81286795;9.14184224;2023-04-23T05:15:17;97702.16;;;12.18;89.04
216;BME280;64590;48.81286795;9.14184224;2023-04-23T05:17:45;97705.16;;;12.30;88.74
216;BME280;64590;48.81286795;9.14184224;2023-04-23T05:20:12;97699.06;;;12.39;89.06
216;BME280;64590;48.81286795;9.14184224;2023-04-23T05:22:39;97702.06;;;12.52;88.48
216;BME280;64590;48.81286795;9.14184224;2023-04-23T05:25:07;97706.78;;;12.55;88.14
216;BME280;64590;48.81286795;9.14184224;2023-04-23T05:27:34;97693.81;;;12.18;88.76
216;BME280;64590;48.81286795;9.14184224;2023-04-23T05:30:01;97705.94;;;12.31;88.18
216;BME280;64590;48.81286795;9.14184224;2023-04-23T05:32:31;97707.94;;;12.30;86.75
216;BME280;64590;48.81286795;9.14184224;2023-04-23T05:34:59;97710.88;;;12.47;86.51
216;BME280;64590;48.81286795;9.14184224;2023-04-23T05:37:27;97710.09;;;12.46;86.86
216;BME280;64590;48.81286795;9.14184224;2023-04-23T05:39:54;97685.03;;;12.46;86.09
216;BME280;64590;48.81286795;9.14184224;2023-04-23T05:42:21;97707.22;;;12.77;84.60
216;BME280;64590;48.81286795;9.14184224;2023-04-23T05:44:48;97709.09;;;12.83;84.97
216;BME280;64590;48.81286795;9.14184224;2023-04-23T05:47:15;97713.22;;;12.98;84.17
216;BME280;64590;48.81286795;9.14184224;2023-04-23T05:49:41;97709.63;;;12.74;85.81
216;BME280;64590;48.81286795;9.14184224;2023-04-23T05:52:09;97705.59;;;12.79;85.46
216;BME280;64590;48.81286795;9.14184224;2023-04-23T05:54:36;97720.19;;;13.10;84.74
216;BME280;64590;48.81286795;9.14184224;2023-04-23T05:57:03;97707.31;;;12.96;84.97
216;BME280;64590;48.81286795;9.14184224;2023-04-23T05:59:30;97721.94;;;12.77;86.02
216;BME280;64590;48.81286795;9.14184224;2023-04-23T06:01:57;97716.19;;;12.88;86.15
216;BME280;64590;48.81286795;9.14184224;2023-04-23T06:04:23;97714.13;;;13.15;85.19
216;BME280;64590;48.81286795;9.14184224;2023-04-23T06:06:50;97719.72;;;13.15;84.38
216;BME280;64590;48.81286795;9.14184224;2023-04-23T06:09:18;97712.13;;;13.16;83.51
216;BME280;64590;48.81286795;9.14184224;2023-04-23T06:11:44;97716.19;;;13.11;83.35
216;BME280;64590;48.81286795;9.14184224;2023-04-23T06:14:11;97714.47;;;13.21;83.36
216;BME280;64590;48.81286795;9.14184224;2023-04-23T06:16:37;97706.25;;;13.10;83.77
216;BME280;64590;48.81286795;9.14184224;2023-04-23T06:19:04;97718.91;;;13.15;84.16
216;BME280;64590;48.81286795;9.14184224;2023-04-23T06:21:30;97718.13;;;13.14;84.73
216;BME280;64590;48.81286795;9.14184224;2023-04-23T06:23:57;97711.91;;;13.07;84.07
216;BME280;64590;48.81286795;9.14184224;2023-04-23T06:26:25;97715.53;;;13.04;85.02
216;BME280;64590;48.81286795;9.14184224;2023-04-23T06:28:56;97720.44;;;12.96;85.80
216;BME280;64590;48.81286795;9.14184224;2023-04-23T06:31:28;97725.16;;;12.99;85.68
216;BME280;64590;48.81286795;9.14184224;2023-04-23T06:33:55;97710.75;;;13.27;85.01
216;BME280;64590;48.81286795;9.14184224;2023-04-23T06:36:21;97712.94;;;13.40;84.66
216;BME280;64590;48.81286795;9.14184224;2023-04-23T06:38:48;97715.50;;;13.50;83.51
216;BME280;64590;48.81286795;9.14184224;2023-04-23T06:41:15;97711.94;;;13.70;82.90
216;BME280;64590;48.81286795;9.14184224;2023-04-23T06:43:42;97706.66;;;13.55;82.96
216;BME280;64590;48.81286795;9.14184224;2023-04-23T06:46:21;97702.44;;;13.47;80.27
216;BME280;64590;48.81286795;9.14184224;2023-04-23T06:48:47;97702.69;;;13.53;81.61
216;BME280;64590;48.81286795;9.14184224;2023-04-23T06:51:14;97703.44;;;13.77;81.74
216;BME280;64590;48.81286795;9.14184224;2023-04-23T06:53:41;97699.13;;;13.92;79.98
216;BME280;64590;48.81286795;9.14184224;2023-04-23T06:56:07;97695.22;;;13.50;80.52
216;BME280;64590;48.81286795;9.14184224;2023-04-23T06:58:34;97685.91;;;13.56;80.50
216;BME280;64590;48.81286795;9.14184224;2023-04-23T07:01:12;97683.91;;;13.57;80.02
216;BME280;64590;48.81286795;9.14184224;2023-04-23T07:03:38;97684.03;;;13.70;81.04
216;BME280;64590;48.81286795;9.14184224;2023-04-23T07:06:08;97675.66;;;14.09;80.31
216;BME280;64590;48.81286795;9.14184224;2023-04-23T07:08:35;97681.69;;;13.68;79.45
216;BME280;64590;48.81286795;9.14184224;2023-04-23T07:11:01;97684.59;;;13.81;80.19
216;BME280;64590;48.81286795;9.14184224;2023-04-23T07:13:28;97684.84;;;13.70;80.88
216;BME280;64590;48.81286795;9.14184224;2023-04-23T07:15:55;97681.03;;;13.61;79.52
216;BME280;64590;48.81286795;9.14184224;2023-04-23T07:18:22;97677.97;;;13.35;80.06
216;BME280;64590;48.81286795;9.14184224;2023-04-23T07:20:49;97675.03;;;13.42;80.14
216;BME280;64590;48.81286795;9.14184224;2023-04-23T07:23:16;97676.56;;;13.67;78.84
216;BME280;64590;48.81286795;9.14184224;2023-04-23T07:25:42;97682.19;;;13.43;78.53
216;BME280;64590;48.81286795;9.14184224;2023-04-23T07:28:09;97687.47;;;13.38;79.75
216;BME280;64590;48.81286795;9.14184224;2023-04-23T07:30:35;97681.97;;;13.34;82.25
216;BME280;64590;48.81286795;9.14184224;2023-04-23T07:33:02;97678.03;;;13.51;80.60
216;BME280;64590;48.81286795;9.14184224;2023-04-23T07:35:30;97673.25;;;13.52;81.41
216;BME280;64590;48.81286795;9.14184224;2023-04-23T07:37:57;97669.31;;;13.69;79.47
216;BME280;64590;48.81286795;9.14184224;2023-04-23T07:40:24;97679.41;;;13.83;80.31
216;BME280;64590;48.81286795;9.14184224;2023-04-23T07:42:50;97662.59;;;14.39;77.67
216;BME280;64590;48.81286795;9.14184224;2023-04-23T07:45:18;97666.78;;;14.31;76.76
216;BME280;64590;48.81286795;9.14184224;2023-04-23T07:47:44;97659.44;;;14.21;77.09
216;BME280;64590;48.81286795;9.14184224;2023-04-23T07:50:11;97664.41;;;14.29;76.62
216;BME280;64590;48.81286795;9.14184224;2023-04-23T07:52:39;97654.34;;;14.15;78.43
216;BME280;64590;48.81286795;9.14184224;2023-04-23T07:55:07;97655.31;;;14.09;76.84
216;BME280;64590;48.81286795;9.14184224;2023-04-23T07:57:34;97647.50;;;14.20;77.62
216;BME280;64590;48.81286795;9.14184224;2023-04-23T08:00:00;97646.44;;;14.30;75.78
216;BME280;64590;48.81286795;9.14184224;2023-04-23T08:02:37;97647.69;;;13.93;74.68
216;BME280;64590;48.81286795;9.14184224;2023-04-23T08:05:04;97656.50;;;13.92;75.03
216;BME280;64590;48.81286795;9.14184224;2023-04-23T08:07:31;97655.13;;;14.00;74.59
216;BME280;64590;48.81286795;9.14184224;2023-04-23T08:09:59;97648.72;;;14.19;73.69
216;BME280;64590;48.81286795;9.14184224;2023-04-23T08:12:28;97647.84;;;14.22;73.27
216;BME280;64590;48.81286795;9.14184224;2023-04-23T08:14:55;97644.53;;;14.27;74.18
216;BME280;64590;48.81286795;9.14184224;2023-04-23T08:17:28;97642.34;;;14.19;74.01
216;BME280;64590;48.81286795;9.14184224;2023-04-23T08:19:55;97633.63;;;14.33;73.18
216;BME280;64590;48.81286795;9.14184224;2023-04-23T08:22:21;97629.09;;;14.39;72.55
216;BME280;64590;48.81286795;9.14184224;2023-04-23T08:24:48;97639.19;;;14.53;73.31
216;BME280;64590;48.81286795;9.14184224;2023-04-23T08:27:16;97636.59;;;14.42;74.20
216;BME280;64590;48.81286795;9.14184224;2023-04-23T08:29:42;97641.03;;;14.39;74.92
216;BME280;64590;48.81286795;9.14184224;2023-04-23T08:32:09;97645.34;;;14.44;73.24
216;BME280;64590;48.81286795;9.14184224;2023-04-23T08:34:35;97635.78;;;14.61;72.43
216;BME280;64590;48.81286795;9.14184224;2023-04-23T08:37:02;97625.88;;;14.89;72.36
216;BME280;64590;48.81286795;9.14184224;2023-04-23T08:39:29;97626.88;;;15.12;71.83
216;BME280;64590;48.81286795;9.14184224;2023-04-23T08:42:03;97625.59;;;15.00;69.77
216;BME280;64590;48.81286795;9.14184224;2023-04-23T08:44:32;97626.53;;;15.10;68.61
216;BME280;64590;48.81286795;9.14184224;2023-04-23T08:47:03;97625.88;;;15.18;70.45
216;BME280;64590;48.81286795;9.14184224;2023-04-23T08:49:32;97621.94;;;15.03;70.23
216;BME280;64590;48.81286795;9.14184224;2023-04-23T08:52:07;97621.56;;;15.01;70.01
216;BME280;64590;48.81286795;9.14184224;2023-04-23T08:54:36;97621.56;;;15.01;69.85
216;BME280;64590;48.81286795;9.14184224;2023-04-23T08:57:07;97617.19;;;15.00;70.31
216;BME280;64590;48.81286795;9.14184224;2023-04-23T08:59:36;97620.91;;;15.26;69.32
216;BME280;64590;48.81286795;9.14184224;2023-04-23T09:02:04;97616.19;;;15.23;70.47
216;BME280;64590;48.81286795;9.14184224;2023-04-23T09:04:34;97617.66;;;15.27;67.98
216;BME280;64590;48.81286795;9.14184224;2023-04-23T09:07:00;97614.06;;;15.27;66.90
216;BME280;64590;48.81286795;9.14184224;2023-04-23T09:09:29;97608.75;;;15.45;68.45
216;BME280;64590;48.81286795;9.14184224;2023-04-23T09:11:56;97605.53;;;15.18;67.78
216;BME280;64590;48.81286795;9.14184224;2023-04-23T09:14:23;97600.81;;;15.44;66.74
216;BME280;64590;48.81286795;9.14184224;2023-04-23T09:16:52;97599.13;;;15.34;67.41
216;BME280;64590;48.81286795;9.14184224;2023-04-23T09:19:19;97592.72;;;15.62;66.06
216;BME280;64590;48.81286795;9.14184224;2023-04-23T09:21:46;97589.81;;;15.37;67.59
216;BME280;64590;48.81286795;9.14184224;2023-04-23T09:24:12;97588.97;;;15.40;65.85
216;BME280;64590;48.81286795;9.14184224;2023-04-23T09:26:44;97586.75;;;15.47;65.54
216;BME280;64590;48.81286795;9.14184224;2023-04-23T09:29:12;97575.06;;;15.65;65.48
216;BME280;64590;48.81286795;9.14184224;2023-04-23T09:31:41;97572.59;;;15.67;64.78
216;BME280;64590;48.81286795;9.14184224;2023-04-23T09:34:09;97566.78;;;15.74;62.55
216;BME280;64590;48.81286795;9.14184224;2023-04-23T09:36:36;97566.25;;;15.92;62.45
216;BME280;64590;48.81286795;9.14184224;2023-04-23T09:39:10;97566.78;;;16.13;62.28
216;BME280;64590;48.81286795;9.14184224;2023-04-23T09:41:37;97564.00;;;16.25;58.77
216;BME280;64590;48.81286795;9.14184224;2023-04-23T09:44:04;97551.28;;;16.46;57.68
216;BME280;64590;48.81286795;9.14184224;2023-04-23T09:46:33;97562.06;;;16.22;57.13
216;BME280;64590;48.81286795;9.14184224;2023-04-23T09:49:01;97550.09;;;16.34;54.10
216;BME280;64590;48.81286795;9.14184224;2023-04-23T09:51:29;97548.56;;;16.68;56.01
216;BME280;64590;48.81286795;9.14184224;2023-04-23T09:53:56;97545.50;;;16.75;54.00
216;BME280;64590;48.81286795;9.14184224;2023-04-23T09:56:23;97542.88;;;16.93;55.22
216;BME280;64590;48.81286795;9.14184224;2023-04-23T09:58:50;97536.81;;;16.95;53.82
216;BME280;64590;48.81286795;9.14184224;2023-04-23T10:01:16;97542.88;;;16.93;52.95
216;BME280;64590;48.81286795;9.14184224;2023-04-23T10:03:43;97545.34;;;16.91;53.47
216;BME280;64590;48.81286795;9.14184224;2023-04-23T10:06:12;97526.13;;;16.68;52.87
216;BME280;64590;48.81286795;9.14184224;2023-04-23T10:08:40;97529.28;;;16.70;53.80
216;BME280;64590;48.81286795;9.14184224;2023-04-23T10:11:09;97531.66;;;16.93;53.61
216;BME280;64590;48.81286795;9.14184224;2023-04-23T10:13:36;97529.66;;;16.94;52.38
216;BME280;64590;48.81286795;9.14184224;2023-04-23T10:16:03;97513.72;;;16.91;53.75
216;BME280;64590;48.81286795;9.14184224;2023-04-23T10:18:31;97516.91;;;16.80;53.86
216;BME280;64590;48.81286795;9.14184224;2023-04-23T10:20:59;97515.69;;;16.81;53.67
216;BME280;64590;48.81286795;9.14184224;2023-04-23T10:23:27;97500.66;;;16.40;53.72
216;BME280;64590;48.81286795;9.14184224;2023-04-23T10:25:57;97514.41;;;16.48;53.61
216;BME280;64590;48.81286795;9.14184224;2023-04-23T10:28:28;97509.31;;;16.68;54.67
216;BME280;64590;48.81286795;9.14184224;2023-04-23T10:30:57;97504.59;;;16.78;52.78
216;BME280;64590;48.81286795;9.14184224;2023-04-23T10:33:25;97505.47;;;16.87;52.98
216;BME280;64590;48.81286795;9.14184224;2023-04-23T10:35:52;97503.84;;;17.21;50.59
216;BME280;64590;48.81286795;9.14184224;2023-04-23T10:38:20;97501.19;;;17.27;48.23
216;BME280;64590;48.81286795;9.14184224;2023-04-23T10:40:49;97485.31;;;17.23;46.36
216;BME280;64590;48.81286795;9.14184224;2023-04-23T10:43:20;97491.44;;;17.09;48.70
216;BME280;64590;48.81286795;9.14184224;2023-04-23T10:45:48;97493.78;;;17.33;49.66
216;BME280;64590;48.81286795;9.14184224;2023-04-23T10:48:15;97495.69;;;17.45;47.51
216;BME280;64590;48.81286795;9.14184224;2023-04-23T10:50:41;97474.81;;;17.46;48.14
216;BME280;64590;48.81286795;9.14184224;2023-04-23T10:53:17;97477.53;;;17.59;49.11
216;BME280;64590;48.81286795;9.14184224;2023-04-23T10:55:44;97479.09;;;17.29;48.14
216;BME280;64590;48.81286795;9.14184224;2023-04-23T10:58:12;97475.06;;;17.08;48.92
216;BME280;64590;48.81286795;9.14184224;2023-04-23T11:00:44;97471.78;;;17.31;48.38
216;BME280;64590;48.81286795;9.14184224;2023-04-23T11:03:27;97478.59;;;17.83;47.83
216;BME280;64590;48.81286795;9.14184224;2023-04-23T11:05:54;97463.59;;;18.26;48.69
216;BME280;64590;48.81286795;9.14184224;2023-04-23T11:08:21;97461.56;;;18.45;46.56
216;BME280;64590;48.81286795;9.14184224;2023-04-23T11:10:53;97452.22;;;18.67;46.75
216;BME280;64590;48.81286795;9.14184224;2023-04-23T11:13:24;97465.19;;;18.73;46.08
216;BME280;64590;48.81286795;9.14184224;2023-04-23T11:16:14;97455.09;;;17.99;46.50
216;BME280;64590;48.81286795;9.14184224;2023-04-23T11:18:57;97457.53;;;17.78;45.91
216;BME280;64590;48.81286795;9.14184224;2023-04-23T11:21:54;97452.69;;;17.79;46.53
216;BME280;64590;48.81286795;9.14184224;2023-04-23T11:24:21;97450.84;;;17.85;48.18
216;BME280;64590;48.81286795;9.14184224;2023-04-23T11:26:50;97456.09;;;17.43;46.65
216;BME280;64590;48.81286795;9.14184224;2023-04-23T11:29:20;97447.06;;;17.39;47.69
216;BME280;64590;48.81286795;9.14184224;2023-04-23T11:31:48;97441.84;;;17.28;47.12
216;BME280;64590;48.81286795;9.14184224;2023-04-23T11:34:15;97437.75;;;17.82;48.65
216;BME280;64590;48.81286795;9.14184224;2023-04-23T11:36:42;97439.00;;;17.90;48.93
216;BME280;64590;48.81286795;9.14184224;2023-04-23T11:39:09;97434.72;;;18.26;49.11
216;BME280;64590;48.81286795;9.14184224;2023-04-23T11:41:36;97410.41;;;18.69;49.23
216;BME280;64590;48.81286795;9.14184224;2023-04-23T11:44:03;97414.09;;;18.56;46.09
216;BME280;64590;48.81286795;9.14184224;2023-04-23T11:46:31;97415.53;;;18.79;47.85
216;BME280;64590;48.81286795;9.14184224;2023-04-23T11:48:59;97404.53;;;19.09;46.06